createdAt,value
2023-04-28T00:00:11.822Z,6.37
2023-04-28T00:02:39.871Z,5.23
2023-04-28T00:05:08.998Z,3.97
2023-04-28T00:07:38.429Z,5.60
2023-04-28T00:10:07.908Z,7.53
2023-04-28T00:12:35.837Z,4.03
2023-04-28T00:15:04.034Z,4.00
2023-04-28T00:17:32.048Z,3.07
2023-04-28T00:20:00.090Z,4.27
2023-04-28T00:22:28.034Z,4.17
2023-04-28T00:24:57.233Z,4.77
2023-04-28T00:27:25.149Z,4.67
2023-04-28T00:29:53.334Z,5.23
2023-04-28T00:32:21.440Z,4.70
2023-04-28T00:34:49.327Z,4.03
2023-04-28T00:37:17.183Z,5.10
2023-04-28T00:39:47.000Z,5.30
2023-04-28T00:42:17.199Z,2.70
2023-04-28T00:44:45.149Z,4.80
2023-04-28T00:47:13.062Z,5.57
2023-04-28T00:49:41.081Z,3.50
2023-04-28T00:52:08.970Z,4.20
2023-04-28T00:54:37.546Z,4.23
2023-04-28T00:57:05.695Z,3.90
2023-04-28T00:59:36.592Z,3.00
2023-04-28T01:02:06.458Z,6.77
2023-04-28T01:04:36.125Z,2.70
2023-04-28T01:07:04.851Z,6.00
2023-04-28T01:09:32.738Z,6.17
2023-04-28T01:12:00.917Z,5.97
2023-04-28T01:14:44.168Z,3.77
2023-04-28T01:17:12.887Z,5.23
2023-04-28T01:19:41.247Z,6.33
2023-04-28T01:22:10.612Z,4.70
2023-04-28T01:24:40.102Z,5.20
2023-04-28T01:27:09.119Z,3.00
2023-04-28T01:29:39.202Z,4.03
2023-04-28T01:32:07.238Z,4.40
2023-04-28T01:34:35.612Z,5.03
2023-04-28T01:37:06.917Z,4.03
2023-04-28T01:39:35.022Z,3.07
2023-04-28T01:42:06.425Z,5.57
2023-04-28T01:44:35.047Z,4.20
2023-04-28T01:47:02.907Z,7.10
2023-04-28T01:49:30.780Z,5.60
2023-04-28T01:51:58.682Z,4.33
2023-04-28T01:54:27.443Z,4.43
2023-04-28T01:56:55.411Z,4.77
2023-04-28T01:59:24.782Z,3.83
2023-04-28T02:01:52.753Z,5.80
2023-04-28T02:04:20.757Z,5.50
2023-04-28T02:06:49.037Z,4.47
2023-04-28T02:09:16.948Z,5.47
2023-04-28T02:11:45.285Z,8.47
2023-04-28T02:14:13.255Z,5.63
2023-04-28T02:16:42.490Z,7.07
2023-04-28T02:19:12.525Z,4.47
2023-04-28T02:21:40.388Z,4.50
2023-04-28T02:24:09.471Z,4.77
2023-04-28T02:26:37.354Z,8.10
2023-04-28T02:29:05.270Z,6.07
2023-04-28T02:31:33.981Z,5.57
2023-04-28T02:34:03.225Z,8.00
2023-04-28T02:36:32.451Z,5.87
2023-04-28T02:39:00.361Z,5.23
2023-04-28T02:41:31.015Z,4.53
2023-04-28T02:43:59.010Z,8.30
2023-04-28T02:46:26.933Z,5.57
2023-04-28T02:48:54.831Z,9.23
2023-04-28T02:51:24.377Z,6.67
2023-04-28T02:53:52.387Z,7.33
2023-04-28T02:56:20.487Z,5.87
2023-04-28T02:58:48.384Z,6.20
2023-04-28T03:01:16.733Z,5.67
2023-04-28T03:03:44.821Z,5.97
2023-04-28T03:06:13.259Z,5.50
2023-04-28T03:08:42.674Z,8.90
2023-04-28T03:11:11.051Z,6.63
2023-04-28T03:13:39.293Z,5.87
2023-04-28T03:16:08.815Z,5.47
2023-04-28T03:18:36.713Z,8.77
2023-04-28T03:21:05.450Z,8.90
2023-04-28T03:23:33.338Z,9.53
2023-04-28T03:26:02.639Z,13.40
2023-04-28T03:28:30.621Z,6.10
2023-04-28T03:31:00.542Z,8.97
2023-04-28T03:33:28.446Z,6.83
2023-04-28T03:35:57.003Z,10.07
2023-04-28T03:38:24.902Z,7.67
2023-04-28T03:40:53.176Z,9.43
2023-04-28T03:43:41.045Z,6.43
2023-04-28T03:46:22.226Z,9.43
2023-04-28T03:48:50.653Z,7.70
2023-04-28T03:51:20.712Z,12.63
2023-04-28T03:53:48.977Z,7.97
2023-04-28T03:56:17.038Z,7.73
2023-04-28T03:58:46.314Z,10.87
2023-04-28T04:01:14.554Z,8.57
2023-04-28T04:03:42.911Z,7.97
2023-04-28T04:06:11.033Z,9.83
2023-04-28T04:08:39.344Z,9.77
2023-04-28T04:11:07.301Z,6.90
2023-04-28T04:13:35.721Z,9.50
2023-04-28T04:16:09.480Z,10.23
2023-04-28T04:18:37.889Z,10.00
2023-04-28T04:21:21.199Z,8.97
2023-04-28T04:23:51.467Z,11.77
2023-04-28T04:26:19.444Z,7.13
2023-04-28T04:28:49.574Z,7.63
2023-04-28T04:31:19.473Z,7.97
2023-04-28T04:33:48.330Z,7.77
2023-04-28T04:36:17.014Z,8.17
2023-04-28T04:38:44.927Z,6.70
2023-04-28T04:41:20.946Z,7.93
2023-04-28T04:43:50.070Z,9.00
2023-04-28T04:46:20.142Z,8.93
2023-04-28T04:48:48.173Z,6.70
2023-04-28T04:51:16.170Z,6.60
2023-04-28T04:53:44.087Z,6.57
2023-04-28T04:56:12.193Z,6.43
2023-04-28T04:58:40.263Z,7.40
2023-04-28T05:01:27.216Z,7.50
2023-04-28T05:03:55.302Z,7.20
2023-04-28T05:06:23.793Z,8.17
2023-04-28T05:08:51.809Z,9.13
2023-04-28T05:11:20.023Z,8.20
2023-04-28T05:13:48.175Z,10.27
2023-04-28T05:16:16.743Z,7.73
2023-04-28T05:19:01.166Z,6.67
2023-04-28T05:21:29.536Z,23.43
2023-04-28T05:23:57.433Z,12.47
2023-04-28T05:26:26.089Z,9.17
2023-04-28T05:28:56.711Z,8.23
2023-04-28T05:31:24.625Z,6.27
2023-04-28T05:33:53.467Z,11.37
2023-04-28T05:36:22.650Z,6.70
2023-04-28T05:38:51.379Z,7.40
2023-04-28T05:41:20.013Z,9.10
2023-04-28T05:43:50.943Z,7.43
2023-04-28T05:46:29.986Z,8.67
2023-04-28T05:49:00.519Z,10.87
2023-04-28T05:51:34.706Z,11.17
2023-04-28T05:54:03.444Z,17.73
2023-04-28T05:56:32.901Z,12.73
2023-04-28T05:59:04.138Z,21.60
2023-04-28T06:01:32.478Z,9.17
2023-04-28T06:04:01.680Z,9.70
2023-04-28T06:06:29.857Z,8.63
2023-04-28T06:08:59.241Z,11.93
2023-04-28T06:11:27.422Z,11.63
2023-04-28T06:13:55.811Z,10.77
2023-04-28T06:16:24.214Z,12.73
2023-04-28T06:18:53.264Z,10.17
2023-04-28T06:21:22.122Z,8.53
2023-04-28T06:23:50.004Z,8.03
2023-04-28T06:26:19.719Z,10.50
2023-04-28T06:28:47.683Z,11.23
2023-04-28T06:31:15.716Z,8.67
2023-04-28T06:33:46.373Z,10.80
2023-04-28T06:36:16.746Z,10.27
2023-04-28T06:38:45.135Z,8.43
2023-04-28T06:41:13.129Z,11.07
2023-04-28T06:43:45.025Z,9.17
2023-04-28T06:46:18.095Z,11.60
2023-04-28T06:48:46.025Z,11.57
2023-04-28T06:51:16.308Z,7.70
2023-04-28T06:53:44.570Z,9.57
2023-04-28T06:56:12.453Z,10.43
2023-04-28T06:58:40.492Z,13.30
2023-04-28T07:01:09.813Z,9.53
2023-04-28T07:03:38.934Z,12.10
2023-04-28T07:06:07.491Z,10.33
2023-04-28T07:08:36.438Z,10.17
2023-04-28T07:11:05.150Z,11.50
2023-04-28T07:13:33.264Z,13.33
2023-04-28T07:16:01.365Z,13.97
2023-04-28T07:18:30.624Z,10.70
2023-04-28T07:20:58.823Z,10.97
2023-04-28T07:23:26.752Z,12.37
2023-04-28T07:25:54.836Z,12.30
2023-04-28T07:28:23.028Z,12.90
2023-04-28T07:30:51.227Z,11.40
2023-04-28T07:33:19.192Z,10.50
2023-04-28T07:35:49.481Z,11.70
2023-04-28T07:38:18.453Z,11.53
2023-04-28T07:40:46.713Z,14.83
2023-04-28T07:43:14.775Z,11.60
2023-04-28T07:45:45.579Z,16.37
2023-04-28T07:48:13.750Z,10.47
2023-04-28T07:50:41.694Z,13.40
2023-04-28T07:53:11.408Z,14.20
2023-04-28T07:55:41.882Z,12.97
2023-04-28T07:58:10.510Z,11.53
2023-04-28T08:00:40.962Z,10.67
2023-04-28T08:03:09.366Z,12.10
2023-04-28T08:05:37.633Z,11.60
2023-04-28T08:08:06.102Z,11.10
2023-04-28T08:10:35.380Z,13.47
2023-04-28T08:13:03.528Z,15.13
2023-04-28T08:15:31.887Z,13.43
2023-04-28T08:18:00.018Z,20.47
2023-04-28T08:20:27.991Z,12.27
2023-04-28T08:22:55.853Z,11.20
2023-04-28T08:25:24.061Z,14.07
2023-04-28T08:27:55.353Z,14.50
2023-04-28T08:30:24.785Z,16.97
2023-04-28T08:32:53.128Z,16.20
2023-04-28T08:35:21.074Z,12.90
2023-04-28T08:37:49.671Z,10.97
2023-04-28T08:40:18.232Z,11.70
2023-04-28T08:42:46.749Z,13.27
2023-04-28T08:45:16.644Z,14.00
2023-04-28T08:47:47.580Z,16.70
2023-04-28T08:50:17.098Z,11.73
2023-04-28T08:52:45.070Z,15.30
2023-04-28T08:55:13.898Z,15.77
2023-04-28T08:57:45.847Z,12.70
2023-04-28T09:00:16.445Z,14.90
2023-04-28T09:02:44.701Z,14.77
2023-04-28T09:05:14.639Z,14.23
2023-04-28T09:07:46.325Z,11.97
2023-04-28T09:10:23.069Z,12.80
2023-04-28T09:12:55.119Z,13.80
2023-04-28T09:15:34.434Z,17.30
2023-04-28T09:18:04.088Z,16.23
2023-04-28T09:20:34.133Z,13.97
2023-04-28T09:23:17.449Z,13.87
2023-04-28T09:26:06.450Z,12.70
2023-04-28T09:28:36.686Z,11.30
2023-04-28T09:31:06.225Z,14.23
2023-04-28T09:33:34.337Z,12.80
2023-04-28T09:36:02.262Z,14.90
2023-04-28T09:38:30.395Z,12.47
2023-04-28T09:41:01.339Z,16.03
2023-04-28T09:43:32.283Z,11.87
2023-04-28T09:46:03.460Z,15.70
2023-04-28T09:48:35.502Z,14.67
2023-04-28T09:51:05.989Z,13.97
2023-04-28T09:53:35.536Z,13.37
2023-04-28T09:56:06.416Z,13.90
2023-04-28T09:58:41.284Z,17.83
2023-04-28T10:01:12.720Z,14.93
2023-04-28T10:03:45.300Z,11.47
2023-04-28T10:06:13.448Z,12.47
2023-04-28T10:08:41.954Z,12.40
2023-04-28T10:11:10.899Z,16.67
2023-04-28T10:13:39.361Z,11.37
2023-04-28T10:16:09.318Z,14.70
2023-04-28T10:18:38.996Z,14.27
2023-04-28T10:21:09.489Z,13.07
2023-04-28T10:24:07.941Z,15.27
2023-04-28T10:27:09.253Z,12.67
2023-04-28T10:29:37.999Z,15.00
2023-04-28T10:32:28.614Z,14.00
2023-04-28T10:35:43.207Z,12.50
2023-04-28T10:38:14.745Z,15.63
2023-04-28T10:40:44.504Z,13.93
2023-04-28T10:43:13.817Z,16.60
2023-04-28T10:46:06.129Z,17.70
2023-04-28T10:49:08.183Z,12.70
2023-04-28T10:51:37.661Z,15.60
2023-04-28T10:54:20.270Z,16.20
2023-04-28T10:57:20.549Z,17.30
2023-04-28T10:59:50.251Z,13.87
2023-04-28T11:02:44.782Z,13.27
2023-04-28T11:05:18.981Z,17.23
2023-04-28T11:08:35.185Z,15.17
2023-04-28T11:11:28.092Z,17.63
2023-04-28T11:14:17.315Z,15.53
2023-04-28T11:16:53.677Z,14.93
2023-04-28T11:19:24.587Z,19.10
2023-04-28T11:21:54.960Z,13.77
2023-04-28T11:24:25.480Z,14.77
2023-04-28T11:26:53.753Z,14.63
2023-04-28T11:29:34.096Z,17.77
2023-04-28T11:32:05.027Z,14.57
2023-04-28T11:34:33.507Z,14.70
2023-04-28T11:37:01.863Z,16.40
2023-04-28T11:39:32.791Z,14.93
2023-04-28T11:42:03.148Z,19.40
2023-04-28T11:44:32.889Z,16.30
2023-04-28T11:47:04.959Z,16.47
2023-04-28T11:49:43.485Z,21.47
2023-04-28T11:52:13.227Z,23.20
2023-04-28T11:54:43.317Z,18.67
2023-04-28T11:57:20.102Z,18.67
2023-04-28T11:59:49.688Z,17.43
2023-04-28T12:02:29.218Z,17.63
2023-04-28T12:04:57.703Z,17.53
2023-04-28T12:07:26.165Z,16.40
2023-04-28T12:10:14.200Z,19.33
2023-04-28T12:12:51.147Z,16.23
2023-04-28T12:15:21.880Z,16.70
2023-04-28T12:17:52.194Z,18.47
2023-04-28T12:20:36.816Z,16.70
2023-04-28T12:23:07.382Z,16.37
2023-04-28T12:25:44.481Z,16.93
2023-04-28T12:28:12.885Z,16.87
2023-04-28T12:30:42.494Z,17.50
2023-04-28T12:33:25.553Z,16.87
2023-04-28T12:35:54.890Z,18.37
2023-04-28T12:38:22.969Z,15.23
2023-04-28T12:40:50.928Z,17.60
2023-04-28T12:43:19.381Z,15.70
2023-04-28T12:45:47.697Z,14.60
2023-04-28T12:48:15.696Z,15.47
2023-04-28T12:50:45.274Z,15.27
2023-04-28T12:53:13.650Z,14.53
2023-04-28T12:55:42.144Z,12.30
2023-04-28T12:58:10.114Z,16.10
2023-04-28T13:00:38.298Z,7.93
2023-04-28T13:03:06.777Z,8.47
2023-04-28T13:05:35.229Z,9.43
2023-04-28T13:08:05.507Z,11.57
2023-04-28T13:10:33.398Z,7.00
2023-04-28T13:13:01.257Z,8.30
2023-04-28T13:15:30.106Z,10.17
2023-04-28T13:17:59.729Z,8.97
2023-04-28T13:20:27.827Z,9.00
2023-04-28T13:22:58.670Z,10.40
2023-04-28T13:25:27.950Z,9.70
2023-04-28T13:27:56.614Z,11.00
2023-04-28T13:30:24.561Z,12.33
2023-04-28T13:32:53.517Z,12.37
2023-04-28T13:35:22.401Z,11.90
2023-04-28T13:37:50.426Z,12.33
2023-04-28T13:40:19.104Z,10.13
2023-04-28T13:42:48.368Z,13.30
2023-04-28T13:45:17.845Z,12.60
2023-04-28T13:47:46.122Z,12.63
2023-04-28T13:50:14.434Z,12.50
2023-04-28T13:52:42.434Z,12.73
2023-04-28T13:55:11.028Z,13.60
2023-04-28T13:57:39.846Z,11.67
2023-04-28T14:00:11.495Z,12.80
2023-04-28T14:02:39.762Z,12.63
2023-04-28T14:05:09.311Z,15.50
2023-04-28T14:07:37.649Z,14.33
2023-04-28T14:10:06.240Z,16.80
2023-04-28T14:12:34.195Z,12.73
2023-04-28T14:15:02.159Z,12.50
2023-04-28T14:17:32.464Z,14.17
2023-04-28T14:20:01.404Z,13.80
2023-04-28T14:22:29.446Z,14.33
2023-04-28T14:24:59.436Z,12.43
2023-04-28T14:27:29.366Z,12.17
2023-04-28T14:29:57.656Z,12.37
2023-04-28T14:32:25.916Z,12.87
2023-04-28T14:34:55.149Z,13.70
2023-04-28T14:37:23.457Z,12.93
2023-04-28T14:39:51.466Z,13.27
2023-04-28T14:42:20.059Z,13.17
2023-04-28T14:44:48.350Z,13.03
2023-04-28T14:47:17.260Z,13.90
2023-04-28T14:49:45.359Z,14.27
2023-04-28T14:52:14.607Z,16.77
2023-04-28T14:54:43.266Z,14.10
2023-04-28T14:57:11.199Z,16.03
2023-04-28T14:59:39.101Z,15.60
2023-04-28T15:02:07.763Z,15.33
2023-04-28T15:04:36.025Z,14.90
2023-04-28T15:07:03.965Z,17.13
2023-04-28T15:09:33.274Z,16.13
2023-04-28T15:12:01.182Z,16.17
2023-04-28T15:14:29.078Z,14.87
2023-04-28T15:16:57.458Z,17.00
2023-04-28T15:19:25.872Z,16.40
2023-04-28T15:21:53.814Z,17.90
2023-04-28T15:24:22.020Z,19.80
2023-04-28T15:26:51.488Z,17.70
2023-04-28T15:29:19.833Z,19.27
2023-04-28T15:31:47.900Z,19.70
2023-04-28T15:34:15.969Z,19.33
2023-04-28T15:36:46.898Z,24.07
2023-04-28T15:39:16.154Z,22.87
2023-04-28T15:41:44.161Z,20.50
2023-04-28T15:44:13.396Z,23.23
2023-04-28T15:46:41.377Z,22.73
2023-04-28T15:49:09.944Z,20.67
2023-04-28T15:51:38.217Z,20.67
2023-04-28T15:54:06.172Z,20.27
2023-04-28T15:56:34.905Z,18.80
2023-04-28T15:59:03.226Z,20.37
2023-04-28T16:01:33.175Z,17.60
2023-04-28T16:04:01.393Z,16.97
2023-04-28T16:06:30.283Z,19.40
2023-04-28T16:08:58.182Z,18.20
2023-04-28T16:11:26.138Z,16.60
2023-04-28T16:13:54.074Z,17.50
2023-04-28T16:16:23.241Z,16.23
2023-04-28T16:18:52.468Z,18.90
2023-04-28T16:21:20.357Z,18.23
2023-04-28T16:23:48.283Z,17.73
2023-04-28T16:26:16.184Z,19.83
2023-04-28T16:28:44.450Z,20.07
2023-04-28T16:31:12.461Z,17.77
2023-04-28T16:33:40.434Z,19.40
2023-04-28T16:36:09.939Z,16.10
2023-04-28T16:38:38.713Z,20.03
2023-04-28T16:41:06.841Z,16.33
2023-04-28T16:43:36.187Z,17.67
2023-04-28T16:46:04.368Z,19.83
2023-04-28T16:48:32.369Z,17.87
2023-04-28T16:51:00.420Z,19.17
2023-04-28T16:53:29.655Z,17.83
2023-04-28T16:55:57.599Z,18.00
2023-04-28T16:58:26.164Z,18.77
2023-04-28T17:00:54.218Z,15.63
2023-04-28T17:03:22.335Z,17.60
2023-04-28T17:05:50.431Z,17.40
2023-04-28T17:08:18.395Z,20.40
2023-04-28T17:10:48.190Z,18.17
2023-04-28T17:13:16.093Z,21.17
2023-04-28T17:15:43.976Z,22.53
2023-04-28T17:18:11.831Z,21.73
2023-04-28T17:20:40.920Z,20.50
2023-04-28T17:23:08.781Z,23.70
2023-04-28T17:25:39.372Z,18.13
2023-04-28T17:28:08.686Z,22.07
2023-04-28T17:30:37.589Z,20.40
2023-04-28T17:33:06.092Z,22.67
2023-04-28T17:35:34.051Z,20.20
2023-04-28T17:38:02.324Z,24.30
2023-04-28T17:40:30.255Z,20.30
2023-04-28T17:42:58.443Z,20.63
2023-04-28T17:45:27.815Z,21.33
2023-04-28T17:47:57.586Z,20.90
2023-04-28T17:50:25.771Z,20.13
2023-04-28T17:52:54.203Z,21.33
2023-04-28T17:55:23.399Z,20.77
2023-04-28T17:57:52.251Z,21.87
2023-04-28T18:00:20.922Z,20.67
2023-04-28T18:02:52.391Z,22.33
2023-04-28T18:05:23.007Z,22.80
2023-04-28T18:07:50.942Z,22.13
2023-04-28T18:10:19.222Z,21.47
2023-04-28T18:12:47.414Z,24.43
2023-04-28T18:15:15.421Z,22.97
2023-04-28T18:17:43.444Z,23.20
2023-04-28T18:20:13.876Z,22.93
2023-04-28T18:22:42.156Z,20.60
2023-04-28T18:25:12.381Z,22.30
2023-04-28T18:27:45.312Z,20.43
2023-04-28T18:30:13.904Z,21.57
2023-04-28T18:32:42.211Z,21.87
2023-04-28T18:35:11.667Z,27.77
2023-04-28T18:37:39.651Z,23.90
2023-04-28T18:40:08.065Z,21.57
2023-04-28T18:42:36.802Z,24.60
2023-04-28T18:45:05.853Z,25.43
2023-04-28T18:47:33.847Z,23.90
2023-04-28T18:50:02.455Z,24.43
2023-04-28T18:52:32.871Z,27.80
2023-04-28T18:55:00.791Z,23.83
2023-04-28T18:57:28.762Z,23.57
2023-04-28T18:59:59.657Z,28.27
2023-04-28T19:02:27.762Z,31.80
2023-04-28T19:04:56.953Z,26.30
2023-04-28T19:07:25.023Z,25.50
2023-04-28T19:09:58.579Z,23.90
2023-04-28T19:12:29.180Z,24.27
2023-04-28T19:14:57.113Z,22.77
2023-04-28T19:17:25.558Z,22.10
2023-04-28T19:19:56.968Z,22.70
2023-04-28T19:22:33.192Z,23.53
2023-04-28T19:25:04.181Z,23.37
2023-04-28T19:27:34.448Z,24.53
2023-04-28T19:30:03.360Z,22.60
2023-04-28T19:32:31.796Z,24.67
2023-04-28T19:35:00.290Z,25.17
2023-04-28T19:37:28.360Z,24.40
2023-04-28T19:39:56.370Z,24.87
2023-04-28T19:42:25.886Z,25.77
2023-04-28T19:44:56.439Z,24.30
2023-04-28T19:47:24.780Z,24.87
2023-04-28T19:49:53.327Z,29.93
2023-04-28T19:52:22.466Z,26.43
2023-04-28T19:54:51.463Z,26.80
2023-04-28T19:57:20.314Z,26.37
2023-04-28T19:59:50.384Z,28.23
2023-04-28T20:02:20.947Z,25.57
2023-04-28T20:04:50.375Z,23.60
2023-04-28T20:07:18.563Z,24.73
2023-04-28T20:09:47.059Z,24.50
2023-04-28T20:12:15.158Z,25.37
2023-04-28T20:14:43.359Z,25.80
2023-04-28T20:17:12.564Z,27.07
2023-04-28T20:19:40.793Z,25.53
2023-04-28T20:22:09.018Z,27.53
2023-04-28T20:24:39.309Z,28.67
2023-04-28T20:27:07.338Z,25.77
2023-04-28T20:29:35.640Z,29.17
2023-04-28T20:32:04.332Z,26.73
2023-04-28T20:34:34.220Z,24.17
2023-04-28T20:37:03.433Z,25.87
2023-04-28T20:39:31.520Z,25.87
2023-04-28T20:42:00.667Z,26.70
2023-04-28T20:44:28.538Z,27.67
2023-04-28T20:46:56.477Z,26.87
2023-04-28T20:49:25.060Z,26.03
2023-04-28T20:51:55.399Z,23.97
2023-04-28T20:54:23.682Z,25.87
2023-04-28T20:56:51.560Z,27.63
2023-04-28T20:59:19.419Z,24.40
2023-04-28T21:01:47.657Z,27.07
2023-04-28T21:04:15.804Z,27.40
2023-04-28T21:06:43.816Z,27.37
2023-04-28T21:09:13.906Z,27.33
2023-04-28T21:11:42.475Z,26.40
2023-04-28T21:14:10.560Z,28.40
2023-04-28T21:16:38.783Z,30.70
2023-04-28T21:19:07.455Z,28.40
2023-04-28T21:21:35.379Z,29.30
2023-04-28T21:24:03.270Z,25.20
2023-04-28T21:26:32.521Z,29.37
2023-04-28T21:29:01.421Z,27.23
2023-04-28T21:31:30.474Z,25.93
2023-04-28T21:33:58.765Z,25.37
2023-04-28T21:36:26.818Z,25.37
2023-04-28T21:38:54.816Z,26.60
2023-04-28T21:41:22.714Z,24.00
2023-04-28T21:43:52.301Z,24.17
2023-04-28T21:46:20.202Z,24.97
2023-04-28T21:48:48.631Z,25.00
2023-04-28T21:51:16.773Z,24.27
2023-04-28T21:53:44.636Z,24.77
2023-04-28T21:56:12.513Z,23.93
2023-04-28T21:58:40.605Z,23.77
2023-04-28T22:01:10.295Z,21.97
2023-04-28T22:03:39.328Z,23.83
2023-04-28T22:06:07.440Z,23.10
2023-04-28T22:08:35.914Z,22.33
2023-04-28T22:11:04.032Z,22.77
2023-04-28T22:13:31.934Z,25.83
2023-04-28T22:16:01.676Z,24.97
2023-04-28T22:18:31.278Z,22.70
2023-04-28T22:21:01.020Z,24.27
2023-04-28T22:23:31.718Z,22.13
2023-04-28T22:26:00.035Z,23.00
2023-04-28T22:28:27.922Z,21.83
2023-04-28T22:30:56.168Z,22.23
2023-04-28T22:33:24.105Z,23.10
2023-04-28T22:35:53.337Z,25.63
2023-04-28T22:38:21.629Z,23.63
2023-04-28T22:40:49.489Z,24.77
2023-04-28T22:43:17.517Z,23.23
2023-04-28T22:45:46.271Z,23.90
2023-04-28T22:48:14.571Z,25.67
2023-04-28T22:50:42.427Z,22.23
2023-04-28T22:53:11.624Z,22.23
2023-04-28T22:55:39.484Z,21.57
2023-04-28T22:58:07.618Z,24.53
2023-04-28T23:00:36.563Z,19.90
2023-04-28T23:03:05.027Z,21.90
2023-04-28T23:05:33.214Z,21.57
2023-04-28T23:08:01.452Z,19.03
2023-04-28T23:10:30.649Z,21.23
2023-04-28T23:12:58.524Z,18.33
2023-04-28T23:15:26.397Z,16.60
2023-04-28T23:17:54.439Z,16.23
2023-04-28T23:20:22.708Z,15.67
2023-04-28T23:22:52.420Z,16.53
2023-04-28T23:25:20.279Z,14.90
2023-04-28T23:27:49.939Z,17.17
2023-04-28T23:30:17.887Z,13.47
2023-04-28T23:32:45.833Z,15.17
2023-04-28T23:35:13.968Z,15.07
2023-04-28T23:37:42.039Z,14.80
2023-04-28T23:40:11.650Z,13.17
2023-04-28T23:42:39.519Z,13.40
2023-04-28T23:45:10.857Z,13.97
2023-04-28T23:47:38.853Z,12.73
2023-04-28T23:50:09.632Z,12.80
2023-04-28T23:52:38.625Z,13.13
2023-04-28T23:55:10.589Z,12.43
2023-04-28T23:57:38.862Z,13.67
